<?xml version="1.0" encoding="UTF-8" standalone="no" ?>
<gpx xmlns="http://www.topografix.com/GPX/1/1" xmlns:xsi="http://www.w3.org/2001/XMLSchema-instance" xsi:schemaLocation="http://www.topografix.com/GPX/1/1 http://www.topografix.com/GPX/1/1/gpx.xsd" version="1.1" creator="VisuGPX - https://www.visugpx.com">
  <metadata>
    <name>Pont du Casse 9 km</name>
  </metadata>
  <trk>
    <name><![CDATA[Pierre_NARFIT_2025-03-13_14-01-20]]></name>
    <extensions>
      <line xmlns="http://www.topografix.com/GPX/gpx_style/0/2">
        <color>0000FF</color>
        <width>4</width>
      </line>
    </extensions>
    <trkseg>
      <trkpt lat="44.23216" lon="0.68216">
        <ele>68</ele>
        <time>2025-03-13T13:01:35.591Z</time>
      </trkpt>
      <trkpt lat="44.23218" lon="0.68228">
        <ele>68.2</ele>
        <time>2025-03-13T13:01:47.591Z</time>
      </trkpt>
      <trkpt lat="44.23223" lon="0.68314">
        <ele>68.3</ele>
        <time>2025-03-13T13:02:43.591Z</time>
      </trkpt>
      <trkpt lat="44.23244" lon="0.68357">
        <ele>68.4</ele>
        <time>2025-03-13T13:03:19.591Z</time>
      </trkpt>
      <trkpt lat="44.23287" lon="0.68442">
        <ele>67</ele>
        <time>2025-03-13T13:04:23.591Z</time>
      </trkpt>
      <trkpt lat="44.23303" lon="0.68492">
        <ele>67.3</ele>
        <time>2025-03-13T13:04:55.591Z</time>
      </trkpt>
      <trkpt lat="44.23314" lon="0.68538">
        <ele>67.9</ele>
        <time>2025-03-13T13:05:27.591Z</time>
      </trkpt>
      <trkpt lat="44.23315" lon="0.68564">
        <ele>68.6</ele>
        <time>2025-03-13T13:05:43.591Z</time>
      </trkpt>
      <trkpt lat="44.23321" lon="0.68617">
        <ele>69.5</ele>
        <time>2025-03-13T13:06:15.591Z</time>
      </trkpt>
      <trkpt lat="44.2332" lon="0.68663">
        <ele>69.9</ele>
        <time>2025-03-13T13:07:19.591Z</time>
      </trkpt>
      <trkpt lat="44.2332" lon="0.68661">
        <ele>70</ele>
        <time>2025-03-13T13:07:23.591Z</time>
      </trkpt>
      <trkpt lat="44.23321" lon="0.68663">
        <ele>69.9</ele>
        <time>2025-03-13T13:07:39.591Z</time>
      </trkpt>
      <trkpt lat="44.23319" lon="0.68661">
        <ele>70</ele>
        <time>2025-03-13T13:07:55.591Z</time>
      </trkpt>
      <trkpt lat="44.23333" lon="0.68812">
        <ele>70.2</ele>
        <time>2025-03-13T13:09:39.591Z</time>
      </trkpt>
      <trkpt lat="44.23343" lon="0.68837">
        <ele>70.8</ele>
        <time>2025-03-13T13:09:55.591Z</time>
      </trkpt>
      <trkpt lat="44.23363" lon="0.6893">
        <ele>70.9</ele>
        <time>2025-03-13T13:10:59.591Z</time>
      </trkpt>
      <trkpt lat="44.23376" lon="0.69014">
        <ele>71.4</ele>
        <time>2025-03-13T13:12:03.591Z</time>
      </trkpt>
      <trkpt lat="44.23377" lon="0.69031">
        <ele>71.4</ele>
        <time>2025-03-13T13:12:19.591Z</time>
      </trkpt>
      <trkpt lat="44.23388" lon="0.6908">
        <ele>71.1</ele>
        <time>2025-03-13T13:13:23.591Z</time>
      </trkpt>
      <trkpt lat="44.23386" lon="0.69131">
        <ele>71.3</ele>
        <time>2025-03-13T13:14:27.591Z</time>
      </trkpt>
      <trkpt lat="44.23378" lon="0.69232">
        <ele>72.5</ele>
        <time>2025-03-13T13:15:31.591Z</time>
      </trkpt>
      <trkpt lat="44.23385" lon="0.69257">
        <ele>72.3</ele>
        <time>2025-03-13T13:17:07.591Z</time>
      </trkpt>
      <trkpt lat="44.2339" lon="0.6934">
        <ele>72.2</ele>
        <time>2025-03-13T13:18:03.591Z</time>
      </trkpt>
      <trkpt lat="44.23399" lon="0.69388">
        <ele>72.5</ele>
        <time>2025-03-13T13:18:35.591Z</time>
      </trkpt>
      <trkpt lat="44.23407" lon="0.69413">
        <ele>72.3</ele>
        <time>2025-03-13T13:18:51.591Z</time>
      </trkpt>
      <trkpt lat="44.23428" lon="0.69459">
        <ele>73.2</ele>
        <time>2025-03-13T13:19:23.591Z</time>
      </trkpt>
      <trkpt lat="44.23461" lon="0.69512">
        <ele>73.1</ele>
        <time>2025-03-13T13:20:19.591Z</time>
      </trkpt>
      <trkpt lat="44.23465" lon="0.69544">
        <ele>73.4</ele>
        <time>2025-03-13T13:20:51.591Z</time>
      </trkpt>
      <trkpt lat="44.23463" lon="0.6958">
        <ele>73.7</ele>
        <time>2025-03-13T13:21:07.591Z</time>
      </trkpt>
      <trkpt lat="44.23465" lon="0.69612">
        <ele>74.2</ele>
        <time>2025-03-13T13:21:23.591Z</time>
      </trkpt>
      <trkpt lat="44.2347" lon="0.69633">
        <ele>73.4</ele>
        <time>2025-03-13T13:21:39.591Z</time>
      </trkpt>
      <trkpt lat="44.23472" lon="0.69635">
        <ele>73.1</ele>
        <time>2025-03-13T13:21:47.591Z</time>
      </trkpt>
      <trkpt lat="44.23487" lon="0.69637">
        <ele>73</ele>
        <time>2025-03-13T13:22:03.591Z</time>
      </trkpt>
      <trkpt lat="44.23494" lon="0.69635">
        <ele>72.9</ele>
        <time>2025-03-13T13:22:11.591Z</time>
      </trkpt>
      <trkpt lat="44.23507" lon="0.69621">
        <ele>72.3</ele>
        <time>2025-03-13T13:22:27.591Z</time>
      </trkpt>
      <trkpt lat="44.23539" lon="0.69596">
        <ele>72.1</ele>
        <time>2025-03-13T13:22:59.591Z</time>
      </trkpt>
      <trkpt lat="44.23584" lon="0.69567">
        <ele>72.6</ele>
        <time>2025-03-13T13:23:47.592Z</time>
      </trkpt>
      <trkpt lat="44.23661" lon="0.69475">
        <ele>77.5</ele>
        <time>2025-03-13T13:25:55.591Z</time>
      </trkpt>
      <trkpt lat="44.23675" lon="0.69462">
        <ele>80.1</ele>
        <time>2025-03-13T13:26:11.591Z</time>
      </trkpt>
      <trkpt lat="44.23685" lon="0.69448">
        <ele>81.9</ele>
        <time>2025-03-13T13:26:27.591Z</time>
      </trkpt>
      <trkpt lat="44.23696" lon="0.69438">
        <ele>84.3</ele>
        <time>2025-03-13T13:26:51.591Z</time>
      </trkpt>
      <trkpt lat="44.23691" lon="0.69427">
        <ele>84.4</ele>
        <time>2025-03-13T13:27:07.591Z</time>
      </trkpt>
      <trkpt lat="44.23689" lon="0.69398">
        <ele>88</ele>
        <time>2025-03-13T13:27:47.591Z</time>
      </trkpt>
      <trkpt lat="44.23684" lon="0.69389">
        <ele>88.1</ele>
        <time>2025-03-13T13:27:55.591Z</time>
      </trkpt>
      <trkpt lat="44.23683" lon="0.69378">
        <ele>88.1</ele>
        <time>2025-03-13T13:28:03.591Z</time>
      </trkpt>
      <trkpt lat="44.23687" lon="0.69369">
        <ele>89.3</ele>
        <time>2025-03-13T13:28:19.591Z</time>
      </trkpt>
      <trkpt lat="44.23698" lon="0.69393">
        <ele>90.6</ele>
        <time>2025-03-13T13:30:19.591Z</time>
      </trkpt>
      <trkpt lat="44.23741" lon="0.69499">
        <ele>89.2</ele>
        <time>2025-03-13T13:31:39.591Z</time>
      </trkpt>
      <trkpt lat="44.23755" lon="0.69517">
        <ele>88.3</ele>
        <time>2025-03-13T13:31:55.591Z</time>
      </trkpt>
      <trkpt lat="44.23795" lon="0.69559">
        <ele>87.1</ele>
        <time>2025-03-13T13:32:35.591Z</time>
      </trkpt>
      <trkpt lat="44.23802" lon="0.6957">
        <ele>87.1</ele>
        <time>2025-03-13T13:32:43.591Z</time>
      </trkpt>
      <trkpt lat="44.23812" lon="0.69654">
        <ele>86.5</ele>
        <time>2025-03-13T13:33:47.591Z</time>
      </trkpt>
      <trkpt lat="44.2383" lon="0.69694">
        <ele>85.5</ele>
        <time>2025-03-13T13:34:19.591Z</time>
      </trkpt>
      <trkpt lat="44.23852" lon="0.69734">
        <ele>83.5</ele>
        <time>2025-03-13T13:34:51.591Z</time>
      </trkpt>
      <trkpt lat="44.2386" lon="0.69757">
        <ele>83.6</ele>
        <time>2025-03-13T13:35:07.591Z</time>
      </trkpt>
      <trkpt lat="44.23869" lon="0.69807">
        <ele>82.8</ele>
        <time>2025-03-13T13:35:39.591Z</time>
      </trkpt>
      <trkpt lat="44.23878" lon="0.69829">
        <ele>82.5</ele>
        <time>2025-03-13T13:35:55.591Z</time>
      </trkpt>
      <trkpt lat="44.23906" lon="0.69867">
        <ele>81.7</ele>
        <time>2025-03-13T13:36:27.591Z</time>
      </trkpt>
      <trkpt lat="44.23924" lon="0.69908">
        <ele>83.3</ele>
        <time>2025-03-13T13:36:59.591Z</time>
      </trkpt>
      <trkpt lat="44.23942" lon="0.69975">
        <ele>85.5</ele>
        <time>2025-03-13T13:38:03.591Z</time>
      </trkpt>
      <trkpt lat="44.23961" lon="0.69975">
        <ele>87.7</ele>
        <time>2025-03-13T13:43:55.591Z</time>
      </trkpt>
      <trkpt lat="44.24014" lon="0.69981">
        <ele>95.5</ele>
        <time>2025-03-13T13:44:43.591Z</time>
      </trkpt>
      <trkpt lat="44.2403" lon="0.69987">
        <ele>97.2</ele>
        <time>2025-03-13T13:44:59.591Z</time>
      </trkpt>
      <trkpt lat="44.24037" lon="0.69981">
        <ele>98.5</ele>
        <time>2025-03-13T13:45:07.591Z</time>
      </trkpt>
      <trkpt lat="44.24041" lon="0.69973">
        <ele>99.4</ele>
        <time>2025-03-13T13:45:15.591Z</time>
      </trkpt>
      <trkpt lat="44.24042" lon="0.69962">
        <ele>99.8</ele>
        <time>2025-03-13T13:45:23.591Z</time>
      </trkpt>
      <trkpt lat="44.24038" lon="0.69941">
        <ele>99.4</ele>
        <time>2025-03-13T13:45:39.591Z</time>
      </trkpt>
      <trkpt lat="44.24036" lon="0.69916">
        <ele>99.4</ele>
        <time>2025-03-13T13:45:55.591Z</time>
      </trkpt>
      <trkpt lat="44.24041" lon="0.69866">
        <ele>102.7</ele>
        <time>2025-03-13T13:46:27.591Z</time>
      </trkpt>
      <trkpt lat="44.24061" lon="0.69818">
        <ele>101.1</ele>
        <time>2025-03-13T13:47:03.591Z</time>
      </trkpt>
      <trkpt lat="44.2408" lon="0.6978">
        <ele>97.1</ele>
        <time>2025-03-13T13:47:35.591Z</time>
      </trkpt>
      <trkpt lat="44.24087" lon="0.69774">
        <ele>96.8</ele>
        <time>2025-03-13T13:47:43.591Z</time>
      </trkpt>
      <trkpt lat="44.24124" lon="0.69691">
        <ele>97.2</ele>
        <time>2025-03-13T13:48:39.591Z</time>
      </trkpt>
      <trkpt lat="44.24137" lon="0.69673">
        <ele>97.5</ele>
        <time>2025-03-13T13:48:55.591Z</time>
      </trkpt>
      <trkpt lat="44.24153" lon="0.69643">
        <ele>98.6</ele>
        <time>2025-03-13T13:49:15.591Z</time>
      </trkpt>
      <trkpt lat="44.24171" lon="0.69625">
        <ele>100.6</ele>
        <time>2025-03-13T13:49:35.591Z</time>
      </trkpt>
      <trkpt lat="44.24169" lon="0.69616">
        <ele>100.2</ele>
        <time>2025-03-13T13:49:43.591Z</time>
      </trkpt>
      <trkpt lat="44.24126" lon="0.69557">
        <ele>101.8</ele>
        <time>2025-03-13T13:50:39.591Z</time>
      </trkpt>
      <trkpt lat="44.24117" lon="0.6955">
        <ele>103</ele>
        <time>2025-03-13T13:50:47.591Z</time>
      </trkpt>
      <trkpt lat="44.24107" lon="0.69536">
        <ele>106.1</ele>
        <time>2025-03-13T13:51:03.591Z</time>
      </trkpt>
      <trkpt lat="44.24108" lon="0.6952">
        <ele>109.5</ele>
        <time>2025-03-13T13:51:27.591Z</time>
      </trkpt>
      <trkpt lat="44.24152" lon="0.69496">
        <ele>117.5</ele>
        <time>2025-03-13T13:52:31.591Z</time>
      </trkpt>
      <trkpt lat="44.24176" lon="0.69486">
        <ele>120.5</ele>
        <time>2025-03-13T13:53:03.591Z</time>
      </trkpt>
      <trkpt lat="44.24183" lon="0.69476">
        <ele>122</ele>
        <time>2025-03-13T13:53:19.591Z</time>
      </trkpt>
      <trkpt lat="44.24179" lon="0.69428">
        <ele>129.1</ele>
        <time>2025-03-13T13:54:23.591Z</time>
      </trkpt>
      <trkpt lat="44.24182" lon="0.69411">
        <ele>131.4</ele>
        <time>2025-03-13T13:54:39.591Z</time>
      </trkpt>
      <trkpt lat="44.24186" lon="0.69409">
        <ele>131.8</ele>
        <time>2025-03-13T13:55:43.591Z</time>
      </trkpt>
      <trkpt lat="44.24193" lon="0.69384">
        <ele>137.6</ele>
        <time>2025-03-13T13:56:15.591Z</time>
      </trkpt>
      <trkpt lat="44.24213" lon="0.69354">
        <ele>141.8</ele>
        <time>2025-03-13T13:57:11.591Z</time>
      </trkpt>
      <trkpt lat="44.24215" lon="0.69342">
        <ele>144.9</ele>
        <time>2025-03-13T13:57:19.591Z</time>
      </trkpt>
      <trkpt lat="44.24247" lon="0.69311">
        <ele>149.1</ele>
        <time>2025-03-13T13:58:07.591Z</time>
      </trkpt>
      <trkpt lat="44.2426" lon="0.69306">
        <ele>149.8</ele>
        <time>2025-03-13T13:58:23.591Z</time>
      </trkpt>
      <trkpt lat="44.2427" lon="0.69298">
        <ele>150.8</ele>
        <time>2025-03-13T13:58:39.591Z</time>
      </trkpt>
      <trkpt lat="44.24282" lon="0.69293">
        <ele>151.6</ele>
        <time>2025-03-13T13:58:55.591Z</time>
      </trkpt>
      <trkpt lat="44.24293" lon="0.69294">
        <ele>151.1</ele>
        <time>2025-03-13T13:59:07.591Z</time>
      </trkpt>
      <trkpt lat="44.24301" lon="0.69289">
        <ele>152.1</ele>
        <time>2025-03-13T13:59:15.591Z</time>
      </trkpt>
      <trkpt lat="44.24315" lon="0.69256">
        <ele>156.4</ele>
        <time>2025-03-13T13:59:47.591Z</time>
      </trkpt>
      <trkpt lat="44.24324" lon="0.69248">
        <ele>157.1</ele>
        <time>2025-03-13T14:00:19.591Z</time>
      </trkpt>
      <trkpt lat="44.24333" lon="0.69229">
        <ele>157.8</ele>
        <time>2025-03-13T14:00:39.591Z</time>
      </trkpt>
      <trkpt lat="44.2434" lon="0.69213">
        <ele>158.5</ele>
        <time>2025-03-13T14:02:47.591Z</time>
      </trkpt>
      <trkpt lat="44.24368" lon="0.69178">
        <ele>159.2</ele>
        <time>2025-03-13T14:03:19.591Z</time>
      </trkpt>
      <trkpt lat="44.24399" lon="0.69123">
        <ele>159.2</ele>
        <time>2025-03-13T14:04:07.591Z</time>
      </trkpt>
      <trkpt lat="44.24406" lon="0.691">
        <ele>158.8</ele>
        <time>2025-03-13T14:04:23.591Z</time>
      </trkpt>
      <trkpt lat="44.24412" lon="0.69093">
        <ele>158.4</ele>
        <time>2025-03-13T14:04:31.591Z</time>
      </trkpt>
      <trkpt lat="44.24416" lon="0.69092">
        <ele>158.3</ele>
        <time>2025-03-13T14:04:35.591Z</time>
      </trkpt>
      <trkpt lat="44.24439" lon="0.6911">
        <ele>159</ele>
        <time>2025-03-13T14:04:59.591Z</time>
      </trkpt>
      <trkpt lat="44.24445" lon="0.69111">
        <ele>159</ele>
        <time>2025-03-13T14:05:15.591Z</time>
      </trkpt>
      <trkpt lat="44.24455" lon="0.69088">
        <ele>157.8</ele>
        <time>2025-03-13T14:06:03.591Z</time>
      </trkpt>
      <trkpt lat="44.24457" lon="0.69076">
        <ele>156.8</ele>
        <time>2025-03-13T14:06:11.591Z</time>
      </trkpt>
      <trkpt lat="44.24448" lon="0.69054">
        <ele>154.7</ele>
        <time>2025-03-13T14:06:27.591Z</time>
      </trkpt>
      <trkpt lat="44.24458" lon="0.69035">
        <ele>150</ele>
        <time>2025-03-13T14:06:43.591Z</time>
      </trkpt>
      <trkpt lat="44.24462" lon="0.69033">
        <ele>148.6</ele>
        <time>2025-03-13T14:06:47.591Z</time>
      </trkpt>
      <trkpt lat="44.24472" lon="0.69037">
        <ele>147.2</ele>
        <time>2025-03-13T14:06:55.591Z</time>
      </trkpt>
      <trkpt lat="44.24489" lon="0.69047">
        <ele>146.7</ele>
        <time>2025-03-13T14:07:11.591Z</time>
      </trkpt>
      <trkpt lat="44.24502" lon="0.69051">
        <ele>144.5</ele>
        <time>2025-03-13T14:07:27.591Z</time>
      </trkpt>
      <trkpt lat="44.24516" lon="0.69047">
        <ele>143</ele>
        <time>2025-03-13T14:07:43.591Z</time>
      </trkpt>
      <trkpt lat="44.24541" lon="0.68994">
        <ele>131.1</ele>
        <time>2025-03-13T14:08:31.591Z</time>
      </trkpt>
      <trkpt lat="44.24546" lon="0.68976">
        <ele>127.8</ele>
        <time>2025-03-13T14:08:43.591Z</time>
      </trkpt>
      <trkpt lat="44.24558" lon="0.68964">
        <ele>126.5</ele>
        <time>2025-03-13T14:08:55.591Z</time>
      </trkpt>
      <trkpt lat="44.24589" lon="0.68944">
        <ele>126</ele>
        <time>2025-03-13T14:09:23.591Z</time>
      </trkpt>
      <trkpt lat="44.24591" lon="0.68937">
        <ele>124.6</ele>
        <time>2025-03-13T14:09:27.591Z</time>
      </trkpt>
      <trkpt lat="44.24618" lon="0.68926">
        <ele>126.2</ele>
        <time>2025-03-13T14:09:51.592Z</time>
      </trkpt>
      <trkpt lat="44.24623" lon="0.6892">
        <ele>125</ele>
        <time>2025-03-13T14:09:59.591Z</time>
      </trkpt>
      <trkpt lat="44.24625" lon="0.68904">
        <ele>121.8</ele>
        <time>2025-03-13T14:10:31.591Z</time>
      </trkpt>
      <trkpt lat="44.2462" lon="0.68908">
        <ele>122.1</ele>
        <time>2025-03-13T14:10:39.591Z</time>
      </trkpt>
      <trkpt lat="44.2461" lon="0.68909">
        <ele>121.2</ele>
        <time>2025-03-13T14:10:47.591Z</time>
      </trkpt>
      <trkpt lat="44.24608" lon="0.68913">
        <ele>121.7</ele>
        <time>2025-03-13T14:10:55.591Z</time>
      </trkpt>
      <trkpt lat="44.24577" lon="0.68926">
        <ele>119.7</ele>
        <time>2025-03-13T14:11:27.591Z</time>
      </trkpt>
      <trkpt lat="44.24562" lon="0.68927">
        <ele>118.2</ele>
        <time>2025-03-13T14:11:43.591Z</time>
      </trkpt>
      <trkpt lat="44.2455" lon="0.68921">
        <ele>115.7</ele>
        <time>2025-03-13T14:11:59.591Z</time>
      </trkpt>
      <trkpt lat="44.24543" lon="0.68921">
        <ele>115.4</ele>
        <time>2025-03-13T14:12:15.591Z</time>
      </trkpt>
      <trkpt lat="44.24527" lon="0.68906">
        <ele>112.1</ele>
        <time>2025-03-13T14:12:55.591Z</time>
      </trkpt>
      <trkpt lat="44.24525" lon="0.68907">
        <ele>112.3</ele>
        <time>2025-03-13T14:12:59.591Z</time>
      </trkpt>
      <trkpt lat="44.24514" lon="0.68885">
        <ele>109.9</ele>
        <time>2025-03-13T14:13:23.591Z</time>
      </trkpt>
      <trkpt lat="44.24522" lon="0.68852">
        <ele>107.3</ele>
        <time>2025-03-13T14:13:55.591Z</time>
      </trkpt>
      <trkpt lat="44.24522" lon="0.68822">
        <ele>106</ele>
        <time>2025-03-13T14:14:59.591Z</time>
      </trkpt>
      <trkpt lat="44.24536" lon="0.68786">
        <ele>102.3</ele>
        <time>2025-03-13T14:16:03.591Z</time>
      </trkpt>
      <trkpt lat="44.24568" lon="0.68734">
        <ele>95.2</ele>
        <time>2025-03-13T14:17:07.591Z</time>
      </trkpt>
      <trkpt lat="44.24579" lon="0.68722">
        <ele>92.8</ele>
        <time>2025-03-13T14:17:23.591Z</time>
      </trkpt>
      <trkpt lat="44.2458" lon="0.68716">
        <ele>92.9</ele>
        <time>2025-03-13T14:17:31.591Z</time>
      </trkpt>
      <trkpt lat="44.24595" lon="0.68707">
        <ele>90.9</ele>
        <time>2025-03-13T14:17:47.591Z</time>
      </trkpt>
      <trkpt lat="44.24604" lon="0.68698">
        <ele>89.4</ele>
        <time>2025-03-13T14:18:03.591Z</time>
      </trkpt>
      <trkpt lat="44.24611" lon="0.68685">
        <ele>88.1</ele>
        <time>2025-03-13T14:18:19.591Z</time>
      </trkpt>
      <trkpt lat="44.24609" lon="0.68682">
        <ele>88.4</ele>
        <time>2025-03-13T14:18:27.591Z</time>
      </trkpt>
      <trkpt lat="44.24622" lon="0.68672">
        <ele>86.6</ele>
        <time>2025-03-13T14:18:51.591Z</time>
      </trkpt>
      <trkpt lat="44.2464" lon="0.68618">
        <ele>83.2</ele>
        <time>2025-03-13T14:19:39.591Z</time>
      </trkpt>
      <trkpt lat="44.24651" lon="0.68574">
        <ele>80.2</ele>
        <time>2025-03-13T14:20:11.591Z</time>
      </trkpt>
      <trkpt lat="44.24656" lon="0.68528">
        <ele>76.6</ele>
        <time>2025-03-13T14:20:43.591Z</time>
      </trkpt>
      <trkpt lat="44.24653" lon="0.68483">
        <ele>74.3</ele>
        <time>2025-03-13T14:21:15.591Z</time>
      </trkpt>
      <trkpt lat="44.24649" lon="0.68465">
        <ele>73.5</ele>
        <time>2025-03-13T14:21:31.591Z</time>
      </trkpt>
      <trkpt lat="44.24648" lon="0.68445">
        <ele>72.4</ele>
        <time>2025-03-13T14:21:47.591Z</time>
      </trkpt>
      <trkpt lat="44.24647" lon="0.68432">
        <ele>71.8</ele>
        <time>2025-03-13T14:23:23.591Z</time>
      </trkpt>
      <trkpt lat="44.24648" lon="0.68417">
        <ele>71</ele>
        <time>2025-03-13T14:26:35.591Z</time>
      </trkpt>
      <trkpt lat="44.2466" lon="0.68397">
        <ele>71</ele>
        <time>2025-03-13T14:26:51.591Z</time>
      </trkpt>
      <trkpt lat="44.24697" lon="0.68389">
        <ele>71.1</ele>
        <time>2025-03-13T14:27:23.591Z</time>
      </trkpt>
      <trkpt lat="44.24707" lon="0.68379">
        <ele>71.5</ele>
        <time>2025-03-13T14:27:35.591Z</time>
      </trkpt>
      <trkpt lat="44.24709" lon="0.68367">
        <ele>71.5</ele>
        <time>2025-03-13T14:27:41.591Z</time>
      </trkpt>
      <trkpt lat="44.24737" lon="0.68331">
        <ele>72</ele>
        <time>2025-03-13T14:28:13.591Z</time>
      </trkpt>
      <trkpt lat="44.24772" lon="0.6827">
        <ele>74.2</ele>
        <time>2025-03-13T14:29:01.591Z</time>
      </trkpt>
      <trkpt lat="44.24843" lon="0.68209">
        <ele>81.2</ele>
        <time>2025-03-13T14:30:13.591Z</time>
      </trkpt>
      <trkpt lat="44.24849" lon="0.68199">
        <ele>82.2</ele>
        <time>2025-03-13T14:30:21.591Z</time>
      </trkpt>
      <trkpt lat="44.24856" lon="0.6817">
        <ele>82.3</ele>
        <time>2025-03-13T14:32:37.591Z</time>
      </trkpt>
      <trkpt lat="44.24855" lon="0.68161">
        <ele>82.1</ele>
        <time>2025-03-13T14:32:45.591Z</time>
      </trkpt>
      <trkpt lat="44.24849" lon="0.68146">
        <ele>81.1</ele>
        <time>2025-03-13T14:33:17.591Z</time>
      </trkpt>
      <trkpt lat="44.24857" lon="0.68117">
        <ele>80.9</ele>
        <time>2025-03-13T14:34:17.591Z</time>
      </trkpt>
      <trkpt lat="44.24861" lon="0.68091">
        <ele>80.3</ele>
        <time>2025-03-13T14:34:37.591Z</time>
      </trkpt>
      <trkpt lat="44.24909" lon="0.68037">
        <ele>83</ele>
        <time>2025-03-13T14:35:25.591Z</time>
      </trkpt>
      <trkpt lat="44.24916" lon="0.68024">
        <ele>83.3</ele>
        <time>2025-03-13T14:35:41.591Z</time>
      </trkpt>
      <trkpt lat="44.2492" lon="0.68012">
        <ele>84.2</ele>
        <time>2025-03-13T14:36:05.591Z</time>
      </trkpt>
      <trkpt lat="44.24947" lon="0.67983">
        <ele>85.4</ele>
        <time>2025-03-13T14:36:37.591Z</time>
      </trkpt>
      <trkpt lat="44.24982" lon="0.67921">
        <ele>87.9</ele>
        <time>2025-03-13T14:37:37.591Z</time>
      </trkpt>
      <trkpt lat="44.25011" lon="0.67849">
        <ele>90.3</ele>
        <time>2025-03-13T14:38:41.591Z</time>
      </trkpt>
      <trkpt lat="44.2503" lon="0.67819">
        <ele>92.1</ele>
        <time>2025-03-13T14:39:13.591Z</time>
      </trkpt>
      <trkpt lat="44.25054" lon="0.67792">
        <ele>93.1</ele>
        <time>2025-03-13T14:39:45.591Z</time>
      </trkpt>
      <trkpt lat="44.25062" lon="0.67777">
        <ele>94</ele>
        <time>2025-03-13T14:40:01.591Z</time>
      </trkpt>
      <trkpt lat="44.25087" lon="0.67758">
        <ele>95.5</ele>
        <time>2025-03-13T14:40:33.591Z</time>
      </trkpt>
      <trkpt lat="44.25094" lon="0.67754">
        <ele>95.8</ele>
        <time>2025-03-13T14:40:47.591Z</time>
      </trkpt>
      <trkpt lat="44.25106" lon="0.67767">
        <ele>95.8</ele>
        <time>2025-03-13T14:41:19.591Z</time>
      </trkpt>
      <trkpt lat="44.25106" lon="0.67765">
        <ele>95.8</ele>
        <time>2025-03-13T14:41:43.591Z</time>
      </trkpt>
      <trkpt lat="44.25111" lon="0.67717">
        <ele>97.4</ele>
        <time>2025-03-13T14:42:47.591Z</time>
      </trkpt>
      <trkpt lat="44.25109" lon="0.67681">
        <ele>100.1</ele>
        <time>2025-03-13T14:43:19.591Z</time>
      </trkpt>
      <trkpt lat="44.25105" lon="0.67669">
        <ele>101.1</ele>
        <time>2025-03-13T14:43:51.591Z</time>
      </trkpt>
      <trkpt lat="44.25093" lon="0.67657">
        <ele>102</ele>
        <time>2025-03-13T14:44:07.591Z</time>
      </trkpt>
      <trkpt lat="44.25062" lon="0.67653">
        <ele>105.5</ele>
        <time>2025-03-13T14:44:39.591Z</time>
      </trkpt>
      <trkpt lat="44.2504" lon="0.67646">
        <ele>111.4</ele>
        <time>2025-03-13T14:45:11.591Z</time>
      </trkpt>
      <trkpt lat="44.25026" lon="0.67638">
        <ele>115.5</ele>
        <time>2025-03-13T14:46:15.591Z</time>
      </trkpt>
      <trkpt lat="44.25039" lon="0.67586">
        <ele>116.8</ele>
        <time>2025-03-13T14:47:19.591Z</time>
      </trkpt>
      <trkpt lat="44.25064" lon="0.67504">
        <ele>117.6</ele>
        <time>2025-03-13T14:48:23.591Z</time>
      </trkpt>
      <trkpt lat="44.25089" lon="0.67435">
        <ele>126.1</ele>
        <time>2025-03-13T14:49:27.591Z</time>
      </trkpt>
      <trkpt lat="44.25113" lon="0.67381">
        <ele>129.2</ele>
        <time>2025-03-13T14:50:31.591Z</time>
      </trkpt>
      <trkpt lat="44.25126" lon="0.67363">
        <ele>131.7</ele>
        <time>2025-03-13T14:51:03.591Z</time>
      </trkpt>
      <trkpt lat="44.25152" lon="0.67304">
        <ele>142.1</ele>
        <time>2025-03-13T14:52:39.591Z</time>
      </trkpt>
      <trkpt lat="44.25164" lon="0.67289">
        <ele>145.9</ele>
        <time>2025-03-13T14:53:03.591Z</time>
      </trkpt>
      <trkpt lat="44.25155" lon="0.67289">
        <ele>146.5</ele>
        <time>2025-03-13T14:53:43.591Z</time>
      </trkpt>
      <trkpt lat="44.25147" lon="0.6729">
        <ele>146.5</ele>
        <time>2025-03-13T14:53:59.591Z</time>
      </trkpt>
      <trkpt lat="44.25137" lon="0.67283">
        <ele>149.6</ele>
        <time>2025-03-13T14:55:03.591Z</time>
      </trkpt>
      <trkpt lat="44.25129" lon="0.67286">
        <ele>149.6</ele>
        <time>2025-03-13T14:56:07.591Z</time>
      </trkpt>
      <trkpt lat="44.25114" lon="0.67299">
        <ele>146.5</ele>
        <time>2025-03-13T14:56:23.591Z</time>
      </trkpt>
      <trkpt lat="44.25083" lon="0.67348">
        <ele>143.8</ele>
        <time>2025-03-13T14:57:27.591Z</time>
      </trkpt>
      <trkpt lat="44.2506" lon="0.6738">
        <ele>142.5</ele>
        <time>2025-03-13T14:57:59.591Z</time>
      </trkpt>
      <trkpt lat="44.25054" lon="0.6739">
        <ele>141.2</ele>
        <time>2025-03-13T14:58:07.591Z</time>
      </trkpt>
      <trkpt lat="44.25051" lon="0.67392">
        <ele>141.8</ele>
        <time>2025-03-13T14:58:11.591Z</time>
      </trkpt>
      <trkpt lat="44.25039" lon="0.67417">
        <ele>140.8</ele>
        <time>2025-03-13T14:58:27.591Z</time>
      </trkpt>
      <trkpt lat="44.25009" lon="0.67453">
        <ele>141</ele>
        <time>2025-03-13T14:58:59.591Z</time>
      </trkpt>
      <trkpt lat="44.24994" lon="0.67466">
        <ele>142.7</ele>
        <time>2025-03-13T14:59:15.591Z</time>
      </trkpt>
      <trkpt lat="44.24986" lon="0.67469">
        <ele>144</ele>
        <time>2025-03-13T14:59:23.591Z</time>
      </trkpt>
      <trkpt lat="44.24975" lon="0.67485">
        <ele>144.2</ele>
        <time>2025-03-13T14:59:39.591Z</time>
      </trkpt>
      <trkpt lat="44.2498" lon="0.67509">
        <ele>139.3</ele>
        <time>2025-03-13T15:00:03.591Z</time>
      </trkpt>
      <trkpt lat="44.24966" lon="0.67532">
        <ele>138.9</ele>
        <time>2025-03-13T15:00:19.591Z</time>
      </trkpt>
      <trkpt lat="44.24956" lon="0.67545">
        <ele>138.8</ele>
        <time>2025-03-13T15:00:35.591Z</time>
      </trkpt>
      <trkpt lat="44.24919" lon="0.67572">
        <ele>137.7</ele>
        <time>2025-03-13T15:01:23.591Z</time>
      </trkpt>
      <trkpt lat="44.24897" lon="0.67604">
        <ele>135.7</ele>
        <time>2025-03-13T15:01:55.591Z</time>
      </trkpt>
      <trkpt lat="44.2488" lon="0.67618">
        <ele>135.7</ele>
        <time>2025-03-13T15:02:11.591Z</time>
      </trkpt>
      <trkpt lat="44.24863" lon="0.67625">
        <ele>137.7</ele>
        <time>2025-03-13T15:02:27.591Z</time>
      </trkpt>
      <trkpt lat="44.24844" lon="0.67629">
        <ele>137.4</ele>
        <time>2025-03-13T15:02:43.591Z</time>
      </trkpt>
      <trkpt lat="44.24826" lon="0.67627">
        <ele>137.6</ele>
        <time>2025-03-13T15:02:59.591Z</time>
      </trkpt>
      <trkpt lat="44.24809" lon="0.67632">
        <ele>134.9</ele>
        <time>2025-03-13T15:03:23.591Z</time>
      </trkpt>
      <trkpt lat="44.24808" lon="0.67625">
        <ele>135.3</ele>
        <time>2025-03-13T15:03:39.591Z</time>
      </trkpt>
      <trkpt lat="44.24813" lon="0.67558">
        <ele>142</ele>
        <time>2025-03-13T15:04:43.591Z</time>
      </trkpt>
      <trkpt lat="44.24809" lon="0.67528">
        <ele>143.3</ele>
        <time>2025-03-13T15:05:15.591Z</time>
      </trkpt>
      <trkpt lat="44.24815" lon="0.67525">
        <ele>145.6</ele>
        <time>2025-03-13T15:05:23.591Z</time>
      </trkpt>
      <trkpt lat="44.24819" lon="0.67528">
        <ele>147.2</ele>
        <time>2025-03-13T15:05:27.591Z</time>
      </trkpt>
      <trkpt lat="44.24822" lon="0.67551">
        <ele>146.6</ele>
        <time>2025-03-13T15:05:43.591Z</time>
      </trkpt>
      <trkpt lat="44.24825" lon="0.67556">
        <ele>147.3</ele>
        <time>2025-03-13T15:05:51.591Z</time>
      </trkpt>
      <trkpt lat="44.24833" lon="0.67479">
        <ele>154.5</ele>
        <time>2025-03-13T15:06:55.591Z</time>
      </trkpt>
      <trkpt lat="44.2484" lon="0.67435">
        <ele>153.3</ele>
        <time>2025-03-13T15:07:27.591Z</time>
      </trkpt>
      <trkpt lat="44.24847" lon="0.67414">
        <ele>153.7</ele>
        <time>2025-03-13T15:07:43.591Z</time>
      </trkpt>
      <trkpt lat="44.24837" lon="0.67259">
        <ele>157.8</ele>
        <time>2025-03-13T15:09:19.591Z</time>
      </trkpt>
      <trkpt lat="44.24832" lon="0.67232">
        <ele>158.6</ele>
        <time>2025-03-13T15:09:35.591Z</time>
      </trkpt>
      <trkpt lat="44.24825" lon="0.67207">
        <ele>157.7</ele>
        <time>2025-03-13T15:09:51.591Z</time>
      </trkpt>
      <trkpt lat="44.24809" lon="0.67179">
        <ele>158.6</ele>
        <time>2025-03-13T15:10:15.591Z</time>
      </trkpt>
      <trkpt lat="44.24753" lon="0.67141">
        <ele>162.6</ele>
        <time>2025-03-13T15:11:07.591Z</time>
      </trkpt>
      <trkpt lat="44.24747" lon="0.67151">
        <ele>161.1</ele>
        <time>2025-03-13T15:11:23.591Z</time>
      </trkpt>
      <trkpt lat="44.24739" lon="0.67155">
        <ele>161.4</ele>
        <time>2025-03-13T15:11:31.591Z</time>
      </trkpt>
      <trkpt lat="44.24733" lon="0.67151">
        <ele>162.6</ele>
        <time>2025-03-13T15:11:39.591Z</time>
      </trkpt>
      <trkpt lat="44.24713" lon="0.67118">
        <ele>166.9</ele>
        <time>2025-03-13T15:12:43.591Z</time>
      </trkpt>
      <trkpt lat="44.24697" lon="0.67085">
        <ele>171.6</ele>
        <time>2025-03-13T15:13:15.591Z</time>
      </trkpt>
      <trkpt lat="44.2468" lon="0.67061">
        <ele>174.4</ele>
        <time>2025-03-13T15:13:47.591Z</time>
      </trkpt>
      <trkpt lat="44.24663" lon="0.67028">
        <ele>178.6</ele>
        <time>2025-03-13T15:14:19.591Z</time>
      </trkpt>
      <trkpt lat="44.24647" lon="0.67007">
        <ele>179.3</ele>
        <time>2025-03-13T15:14:43.591Z</time>
      </trkpt>
      <trkpt lat="44.24642" lon="0.67006">
        <ele>179.2</ele>
        <time>2025-03-13T15:14:51.591Z</time>
      </trkpt>
      <trkpt lat="44.24628" lon="0.67024">
        <ele>175.6</ele>
        <time>2025-03-13T15:15:15.591Z</time>
      </trkpt>
      <trkpt lat="44.24594" lon="0.67052">
        <ele>170.7</ele>
        <time>2025-03-13T15:15:47.591Z</time>
      </trkpt>
      <trkpt lat="44.2458" lon="0.67046">
        <ele>172.9</ele>
        <time>2025-03-13T15:16:03.591Z</time>
      </trkpt>
      <trkpt lat="44.24572" lon="0.67028">
        <ele>177.4</ele>
        <time>2025-03-13T15:16:19.591Z</time>
      </trkpt>
      <trkpt lat="44.24556" lon="0.67004">
        <ele>179.8</ele>
        <time>2025-03-13T15:16:43.591Z</time>
      </trkpt>
      <trkpt lat="44.24535" lon="0.66952">
        <ele>179.1</ele>
        <time>2025-03-13T15:17:27.591Z</time>
      </trkpt>
      <trkpt lat="44.24528" lon="0.66959">
        <ele>178</ele>
        <time>2025-03-13T15:17:43.591Z</time>
      </trkpt>
      <trkpt lat="44.2452" lon="0.66962">
        <ele>177.1</ele>
        <time>2025-03-13T15:17:59.591Z</time>
      </trkpt>
      <trkpt lat="44.24512" lon="0.66969">
        <ele>176.3</ele>
        <time>2025-03-13T15:18:07.591Z</time>
      </trkpt>
      <trkpt lat="44.24445" lon="0.66994">
        <ele>168.3</ele>
        <time>2025-03-13T15:19:11.592Z</time>
      </trkpt>
      <trkpt lat="44.2436" lon="0.67035">
        <ele>163</ele>
        <time>2025-03-13T15:20:27.591Z</time>
      </trkpt>
      <trkpt lat="44.24352" lon="0.67033">
        <ele>162.7</ele>
        <time>2025-03-13T15:20:35.591Z</time>
      </trkpt>
      <trkpt lat="44.24299" lon="0.67045">
        <ele>160.1</ele>
        <time>2025-03-13T15:21:19.591Z</time>
      </trkpt>
      <trkpt lat="44.2429" lon="0.67052">
        <ele>159.7</ele>
        <time>2025-03-13T15:21:27.591Z</time>
      </trkpt>
      <trkpt lat="44.24223" lon="0.67067">
        <ele>155.6</ele>
        <time>2025-03-13T15:22:31.591Z</time>
      </trkpt>
      <trkpt lat="44.24187" lon="0.67071">
        <ele>154</ele>
        <time>2025-03-13T15:23:03.591Z</time>
      </trkpt>
      <trkpt lat="44.2418" lon="0.67066">
        <ele>153.9</ele>
        <time>2025-03-13T15:23:11.591Z</time>
      </trkpt>
      <trkpt lat="44.24166" lon="0.6707">
        <ele>152.9</ele>
        <time>2025-03-13T15:23:27.591Z</time>
      </trkpt>
      <trkpt lat="44.24127" lon="0.67066">
        <ele>149.8</ele>
        <time>2025-03-13T15:23:59.591Z</time>
      </trkpt>
      <trkpt lat="44.24109" lon="0.67059">
        <ele>148.7</ele>
        <time>2025-03-13T15:24:15.591Z</time>
      </trkpt>
      <trkpt lat="44.24094" lon="0.67051">
        <ele>146.1</ele>
        <time>2025-03-13T15:24:31.591Z</time>
      </trkpt>
      <trkpt lat="44.24077" lon="0.6705">
        <ele>142.3</ele>
        <time>2025-03-13T15:24:47.591Z</time>
      </trkpt>
      <trkpt lat="44.24064" lon="0.67058">
        <ele>140.5</ele>
        <time>2025-03-13T15:25:03.591Z</time>
      </trkpt>
      <trkpt lat="44.24053" lon="0.67072">
        <ele>138.9</ele>
        <time>2025-03-13T15:25:19.591Z</time>
      </trkpt>
      <trkpt lat="44.24035" lon="0.67108">
        <ele>133.8</ele>
        <time>2025-03-13T15:25:51.591Z</time>
      </trkpt>
      <trkpt lat="44.24024" lon="0.67125">
        <ele>131.8</ele>
        <time>2025-03-13T15:26:07.591Z</time>
      </trkpt>
      <trkpt lat="44.23907" lon="0.67243">
        <ele>113.6</ele>
        <time>2025-03-13T15:28:15.591Z</time>
      </trkpt>
      <trkpt lat="44.23892" lon="0.67254">
        <ele>112.1</ele>
        <time>2025-03-13T15:28:31.591Z</time>
      </trkpt>
      <trkpt lat="44.23814" lon="0.67359">
        <ele>101.1</ele>
        <time>2025-03-13T15:30:07.591Z</time>
      </trkpt>
      <trkpt lat="44.23757" lon="0.67416">
        <ele>94.8</ele>
        <time>2025-03-13T15:31:11.591Z</time>
      </trkpt>
      <trkpt lat="44.23731" lon="0.67428">
        <ele>92.9</ele>
        <time>2025-03-13T15:31:43.591Z</time>
      </trkpt>
      <trkpt lat="44.23722" lon="0.67428">
        <ele>92.6</ele>
        <time>2025-03-13T15:31:51.591Z</time>
      </trkpt>
      <trkpt lat="44.237" lon="0.67438">
        <ele>88.9</ele>
        <time>2025-03-13T15:32:07.591Z</time>
      </trkpt>
      <trkpt lat="44.23533" lon="0.67468">
        <ele>72.1</ele>
        <time>2025-03-13T15:36:27.591Z</time>
      </trkpt>
      <trkpt lat="44.23514" lon="0.67469">
        <ele>70.9</ele>
        <time>2025-03-13T15:36:59.591Z</time>
      </trkpt>
      <trkpt lat="44.23512" lon="0.67467">
        <ele>70.8</ele>
        <time>2025-03-13T15:37:15.591Z</time>
      </trkpt>
      <trkpt lat="44.23492" lon="0.67512">
        <ele>69.7</ele>
        <time>2025-03-13T15:37:47.591Z</time>
      </trkpt>
      <trkpt lat="44.2348" lon="0.67549">
        <ele>69.3</ele>
        <time>2025-03-13T15:38:11.591Z</time>
      </trkpt>
      <trkpt lat="44.23455" lon="0.67605">
        <ele>69</ele>
        <time>2025-03-13T15:38:51.591Z</time>
      </trkpt>
      <trkpt lat="44.23445" lon="0.67613">
        <ele>68.9</ele>
        <time>2025-03-13T15:38:59.591Z</time>
      </trkpt>
      <trkpt lat="44.23426" lon="0.67612">
        <ele>68.3</ele>
        <time>2025-03-13T15:39:15.591Z</time>
      </trkpt>
      <trkpt lat="44.2342" lon="0.67615">
        <ele>68.1</ele>
        <time>2025-03-13T15:39:19.591Z</time>
      </trkpt>
      <trkpt lat="44.23412" lon="0.67637">
        <ele>68</ele>
        <time>2025-03-13T15:39:35.591Z</time>
      </trkpt>
      <trkpt lat="44.23412" lon="0.67647">
        <ele>68</ele>
        <time>2025-03-13T15:39:43.591Z</time>
      </trkpt>
      <trkpt lat="44.23417" lon="0.67657">
        <ele>68</ele>
        <time>2025-03-13T15:39:51.591Z</time>
      </trkpt>
      <trkpt lat="44.23424" lon="0.67665">
        <ele>68</ele>
        <time>2025-03-13T15:39:59.591Z</time>
      </trkpt>
      <trkpt lat="44.23444" lon="0.67674">
        <ele>68</ele>
        <time>2025-03-13T15:40:15.591Z</time>
      </trkpt>
      <trkpt lat="44.2346" lon="0.67691">
        <ele>68.1</ele>
        <time>2025-03-13T15:40:31.591Z</time>
      </trkpt>
      <trkpt lat="44.23464" lon="0.67703">
        <ele>68</ele>
        <time>2025-03-13T15:40:39.591Z</time>
      </trkpt>
      <trkpt lat="44.23461" lon="0.67718">
        <ele>68</ele>
        <time>2025-03-13T15:40:47.591Z</time>
      </trkpt>
      <trkpt lat="44.23448" lon="0.67743">
        <ele>67.9</ele>
        <time>2025-03-13T15:41:03.591Z</time>
      </trkpt>
      <trkpt lat="44.23442" lon="0.67786">
        <ele>66.7</ele>
        <time>2025-03-13T15:41:27.591Z</time>
      </trkpt>
      <trkpt lat="44.23414" lon="0.6794">
        <ele>66.8</ele>
        <time>2025-03-13T15:42:55.591Z</time>
      </trkpt>
      <trkpt lat="44.23409" lon="0.67977">
        <ele>66.2</ele>
        <time>2025-03-13T15:43:19.591Z</time>
      </trkpt>
      <trkpt lat="44.23406" lon="0.67989">
        <ele>66.6</ele>
      </trkpt>
      <trkpt lat="44.23401" lon="0.67995">
        <ele>66.8</ele>
        <time>2025-03-13T15:43:51.591Z</time>
      </trkpt>
      <trkpt lat="44.23373" lon="0.67973">
        <ele>66</ele>
        <time>2025-03-13T15:44:15.591Z</time>
      </trkpt>
      <trkpt lat="44.23334" lon="0.67974">
        <ele>66</ele>
        <time>2025-03-13T15:44:47.591Z</time>
      </trkpt>
      <trkpt lat="44.23281" lon="0.68005">
        <ele>66</ele>
        <time>2025-03-13T15:45:35.591Z</time>
      </trkpt>
      <trkpt lat="44.23282" lon="0.68029">
        <ele>66</ele>
        <time>2025-03-13T15:45:51.591Z</time>
      </trkpt>
      <trkpt lat="44.23271" lon="0.68031">
        <ele>66</ele>
        <time>2025-03-13T15:45:59.591Z</time>
      </trkpt>
      <trkpt lat="44.23266" lon="0.68039">
        <ele>66</ele>
        <time>2025-03-13T15:46:11.591Z</time>
      </trkpt>
      <trkpt lat="44.23278" lon="0.68063">
        <ele>66</ele>
        <time>2025-03-13T15:46:27.591Z</time>
      </trkpt>
      <trkpt lat="44.2328" lon="0.68084">
        <ele>66</ele>
        <time>2025-03-13T15:46:39.591Z</time>
      </trkpt>
      <trkpt lat="44.2327" lon="0.68091">
        <ele>66.3</ele>
        <time>2025-03-13T15:46:47.591Z</time>
      </trkpt>
      <trkpt lat="44.23257" lon="0.68093">
        <ele>66.4</ele>
        <time>2025-03-13T15:47:03.591Z</time>
      </trkpt>
      <trkpt lat="44.2324" lon="0.68102">
        <ele>66.7</ele>
        <time>2025-03-13T15:47:19.591Z</time>
      </trkpt>
      <trkpt lat="44.23238" lon="0.68107">
        <ele>66.8</ele>
        <time>2025-03-13T15:47:23.591Z</time>
      </trkpt>
      <trkpt lat="44.23237" lon="0.68117">
        <ele>66.9</ele>
        <time>2025-03-13T15:47:27.591Z</time>
      </trkpt>
      <trkpt lat="44.23221" lon="0.68136">
        <ele>67</ele>
        <time>2025-03-13T15:47:43.591Z</time>
      </trkpt>
      <trkpt lat="44.23211" lon="0.68141">
        <ele>67.4</ele>
        <time>2025-03-13T15:47:51.591Z</time>
      </trkpt>
      <trkpt lat="44.23204" lon="0.68141">
        <ele>67.6</ele>
        <time>2025-03-13T15:48:07.591Z</time>
      </trkpt>
      <trkpt lat="44.23203" lon="0.6815">
        <ele>67.7</ele>
      </trkpt>
      <trkpt lat="44.23205" lon="0.68156">
        <ele>67.6</ele>
        <time>2025-03-13T15:48:31.591Z</time>
      </trkpt>
      <trkpt lat="44.23208" lon="0.68174">
        <ele>67.6</ele>
        <time>2025-03-13T15:49:03.591Z</time>
      </trkpt>
      <trkpt lat="44.23216" lon="0.68216">
        <ele>68</ele>
        <time>2025-03-13T15:49:28.591Z</time>
      </trkpt>
    </trkseg>
  </trk>
</gpx>